Webcam more information Webcam


altri nostri siti meteo:

ViterbometeoSito sul meteo

Pomeziameteo 1Sito sul meteo

Pomeziameteo DashboardSito sul meteo

Caput FrigorisSito sul meteo

BarcellonameteoSito sul meteo

MeteoipassiSito sul meteo

TortoretometeolidoSito sul meteo

CastelnuovovomanometeoSito sul meteo

MeteogonzagaSito sul meteo

MeteonetworkInvio dai a Meteonetwork



Nessuna attenzione particolare richiesta.    Non ci sono allerte meteo

Report METAR

   
LIRE - Pratica di mare
Dati ricevuti: 12-11-2018 17:55
Sereno  
Sereno  
   Vento: Nord 5.6 km/h
Vento: Nord 5.6 km/h
Temperatura: 16°C
P.to Rugiada: 15°C
Umidita: 94%
Barometro: 1026 hPa
Visibilita: oltre 10 km
dettagli cloud: Sereno
LIRE 121655Z 01003KT CAVOK 16/15 Q1026 RMK SCT SCT200 VIS MIN 9999 WIND THR13 05002KT WIND THR31 /////KT BLU
LIRF - Fiumicino
Dati ricevuti: 12-11-2018 18:20
Sereno  
Sereno  
   Vento: Variabile 3.7 km/h
Vento: Variabile 3.7 km/h
Temperatura: 15°C
P.to Rugiada: 14°C
Umidita: 94%
Barometro: 1026 hPa
Visibilita: oltre 10 km
dettagli cloud: Sereno
LIRF 121720Z VRB02KT CAVOK 15/14 Q1026 NOSIG
LIRA - Ciampino
Dati ricevuti: 12-11-2018 18:20
Sereno  
Sereno  
   Vento: SE 5.6 km/h
Vento: SE 5.6 km/h
Temperatura: 14°C
P.to Rugiada: 12°C
Umidita: 88%
Barometro: 1026 hPa
Visibilita: oltre 10 km
dettagli cloud: Sereno
LIRA 121720Z 12003KT CAVOK 14/12 Q1026
LIRL - Latina
Dati ricevuti: 12-11-2018 17:55
Sereno  
Sereno  
   Vento: NE 3.7 km/h
Vento: NE 3.7 km/h
Temperatura: 16°C
P.to Rugiada: 13°C
Umidita: 83%
Barometro: 1025 hPa
Visibilita: oltre 10 km
dettagli cloud: Sereno
LIRL 121655Z 05002KT CAVOK 16/13 Q1025
  

Script sviluppato da  Saratoga-weather.org Adattato per il modello da  Weerstation Leuven

Potete trovare le nostre info meteo anche a:

Weather Underground

AWEKAS

HAMweather, WeatherForYou, PWS Weather

Strumentazione usata:

Stazione meteo
Davis VP2

Programma gestore dati meteo
WVIEW

Server per i dati meteo
WDS-5

Davis VP2

WVIEW

WDS-5